Latest Coastal Weather Observations for Lucinda

IDQ60701

Issued at 12:21 pm EST Monday 23 January 2017 (issued every 10 minutes, with the page automatically refreshed every 10 minutes)

About coastal observations | Map of coastal stations | Coastal observations for QLD | Marine services | Other Formats
Station Details ID: 032141 Name: LUCINDA POINT Lat: -18.52 Lon: 146.39 Height: 10.0 m
Data from the previous 72 hours. | See also: Recent months at Lucinda
Date/Time
EST
Temp
°C
Wind Pressure Rain since
9am
mm
Weather Cloud Vis
km
Sea
Height
m
Swell
Dir  Spd
kts
Gust
kts
hPa Trend Height
m
Period
s
Dir
23/12:00pm 30.5 ESE 8 13 1011.2 - 0.0 - - - - - - -
23/11:30am 30.3 ESE 9 11 1011.5 - 0.0 - - - - - - -
23/11:00am 30.9 ESE 8 11 1011.3 - 0.0 - - - - - - -
23/10:30am 30.9 ESE 5 9 1011.5 - 0.0 - - - - - - -
23/10:00am 30.3 ESE 9 12 1011.4 - 0.0 - - - - - - -
23/09:30am 29.9 ESE 10 17 1011.5 - 0.0 - - - - - - -
23/09:00am 29.6 ESE 13 17 1011.3 - 0.0 - - - - - - -
23/08:30am 29.4 E 11 14 1011.0 - 0.0 - - - - - - -
23/08:00am 29.4 E 11 15 1010.8 - 0.0 - - - - - - -
23/07:30am 29.3 ESE 12 17 1010.5 - 0.0 - - - - - - -
23/07:00am 29.2 SE 12 18 1010.4 - 0.0 - - - - - - -
23/06:30am 28.9 ESE 11 17 1010.0 - 0.0 - - - - - - -
23/06:00am 28.6 ESE 14 18 1009.8 - 0.0 - - - - - - -
23/05:30am 28.6 ESE 12 17 1009.5 - 0.0 - - - - - - -
23/05:00am 28.7 ESE 11 16 1009.2 - 0.0 - - - - - - -
23/04:30am 28.7 ESE 11 17 1008.9 - 0.0 - - - - - - -
23/04:00am 28.7 ESE 12 17 1008.6 - 0.0 - - - - - - -
23/03:30am 28.7 ESE 14 18 1008.5 - 0.0 - - - - - - -
23/03:00am 28.8 ESE 13 16 1008.5 - 0.0 - - - - - - -
23/02:30am 28.8 E 13 17 1008.6 - 0.0 - - - - - - -
23/02:00am 29.0 ESE 12 16 1008.9 - 0.0 - - - - - - -
23/01:30am 29.0 E 7 10 1009.3 - 0.0 - - - - - - -
23/01:00am 29.0 E 8 11 1009.8 - 0.0 - - - - - - -
23/12:30am 29.1 E 9 13 1010.0 - 0.0 - - - - - - -
23/12:00am 29.2 E 11 13 1010.3 - 0.0 - - - - - - -
 
Date/Time
EST
Temp
°C
Wind Pressure Rain since
9am
mm
Weather Cloud Vis
km
Sea
Height
m
Swell
Dir  Spd
kts
Gust
kts
hPa Trend Height
m
Period
s
Dir
22/11:30pm 29.2 E 10 13 1010.6 - 0.0 - - - - - - -
22/11:00pm 29.2 E 11 14 1010.6 - 0.0 - - - - - - -
22/10:30pm 29.3 E 10 14 1010.8 - 0.0 - - - - - - -
22/10:00pm 29.3 E 9 13 1010.9 - 0.0 - - - - - - -
22/09:30pm 29.3 E 11 15 1010.8 - 0.0 - - - - - - -
22/09:00pm 29.3 E 11 14 1010.3 - 0.0 - - - - - - -
22/08:30pm 29.3 E 11 14 1010.2 - 0.0 - - - - - - -
22/08:00pm 29.4 ENE 11 15 1010.0 - 0.0 - - - - - - -
22/07:30pm 29.4 E 10 13 1009.5 - 0.0 - - - - - - -
22/07:00pm 29.3 E 10 14 1009.2 - 0.0 - - - - - - -
22/06:30pm 29.4 E 10 13 1008.7 - 0.0 - - - - - - -
22/06:00pm 29.6 ENE 10 15 1008.1 - 0.0 - - - - - - -
22/05:30pm 29.9 ENE 12 14 1008.0 - 0.0 - - - - - - -
22/05:00pm 29.8 ENE 11 16 1007.8 - 0.0 - - - - - - -
22/04:30pm 29.9 ENE 12 15 1007.8 - 0.0 - - - - - - -
22/04:00pm 29.9 ENE 13 16 1007.8 - 0.0 - - - - - - -
22/03:30pm 30.0 ENE 11 14 1007.8 - 0.0 - - - - - - -
22/03:00pm 29.7 ENE 11 14 1008.3 - 0.0 - - - - - - -
22/02:30pm 29.7 ENE 10 14 1008.5 - 0.0 - - - - - - -
22/02:00pm 29.4 ENE 11 14 1008.6 - 0.0 - - - - - - -
22/01:30pm 29.6 ENE 10 14 1008.9 - 0.0 - - - - - - -
22/01:00pm 29.5 ENE 9 12 1009.0 - 0.0 - - - - - - -
22/12:30pm 29.6 ENE 9 11 1009.0 - 0.0 - - - - - - -
22/12:00pm 29.8 ENE 8 11 1009.2 - 0.0 - - - - - - -
22/11:30am 29.6 ENE 9 11 1009.6 - 0.0 - - - - - - -
22/11:00am 30.0 E 8 12 1009.7 - 0.0 - - - - - - -
22/10:30am 30.0 ESE 9 13 1009.7 - 0.0 - - - - - - -
22/10:00am 30.7 ESE 6 11 1009.9 - 0.0 - - - - - - -
22/09:30am 30.1 ESE 8 11 1009.8 - 0.0 - - - - - - -
22/09:00am 30.2 E 6 9 1009.7 - 0.0 - - - - - - -
22/08:30am 28.2 SSW 5 7 1009.4 - 0.0 - - - - - - -
22/08:00am 27.9 SW 6 8 1009.4 - 0.0 - - - - - - -
22/07:30am 27.6 WSW 6 7 1009.0 - 0.0 - - - - - - -
22/07:00am 27.3 WSW 5 6 1008.8 - 0.0 - - - - - - -
22/06:30am 27.4 WSW 5 6 1008.5 - 0.0 - - - - - - -
22/06:00am 27.7 SW 6 7 1008.2 - 0.0 - - - - - - -
22/05:30am 27.3 SW 10 12 1007.9 - 0.0 - - - - - - -
22/05:00am 27.3 SW 10 12 1007.6 - 0.0 - - - - - - -
22/04:30am 27.6 SW 12 15 1007.4 - 0.0 - - - - - - -
22/04:00am 28.8 NNE 7 8 1007.2 - 0.0 - - - - - - -
22/03:30am 28.8 NNE 9 11 1007.1 - 0.0 - - - - - - -
22/03:00am 28.8 NNE 8 11 1007.1 - 0.0 - - - - - - -
22/02:30am 28.9 N 9 13 1007.3 - 0.0 - - - - - - -
22/02:00am 28.9 N 11 14 1007.5 - 0.0 - - - - - - -
22/01:30am 28.9 N 12 14 1007.8 - 0.0 - - - - - - -
22/01:00am 29.0 N 12 15 1008.0 - 0.0 - - - - - - -
22/12:30am 29.0 N 13 16 1008.2 - 0.0 - - - - - - -
22/12:00am 29.2 N 12 14 1008.7 - 0.0 - - - - - - -
 
Date/Time
EST
Temp
°C
Wind Pressure Rain since
9am
mm
Weather Cloud Vis
km
Sea
Height
m
Swell
Dir  Spd
kts
Gust
kts
hPa Trend Height
m
Period
s
Dir
21/11:30pm 29.2 N 12 15 1009.0 - 0.0 - - - - - - -
21/11:00pm 29.2 N 12 15 1009.2 - 0.0 - - - - - - -
21/10:30pm 29.3 N 12 16 1009.2 - 0.0 - - - - - - -
21/10:00pm 29.3 N 13 16 1009.0 - 0.0 - - - - - - -
21/09:30pm 29.2 N 12 15 1008.5 - 0.0 - - - - - - -
21/09:00pm 29.2 N 13 16 1007.8 - 0.0 - - - - - - -
21/08:30pm 29.3 N 13 16 1007.4 - 0.0 - - - - - - -
21/08:00pm 29.1 N 13 15 1007.2 - 0.0 - - - - - - -
21/07:30pm 29.2 NNE 13 16 1006.9 - 0.0 - - - - - - -
21/07:00pm 29.1 NNE 13 16 1006.5 - 0.0 - - - - - - -
21/06:30pm 29.2 NNE 13 15 1006.2 - 0.0 - - - - - - -
21/06:00pm 29.3 NNE 16 19 1005.8 - 0.0 - - - - - - -
21/05:30pm 29.2 NE 16 19 1005.4 - 0.0 - - - - - - -
21/05:00pm 29.4 NNE 16 19 1005.3 - 0.0 - - - - - - -
21/04:30pm 29.7 NNE 16 19 1005.1 - 0.0 - - - - - - -
21/04:00pm 29.9 NNE 17 21 1005.0 - 0.0 - - - - - - -
21/03:30pm 30.0 N 17 21 1005.2 - 0.0 - - - - - - -
21/03:00pm 29.9 NNE 15 19 1005.6 - 0.0 - - - - - - -
21/02:30pm 30.0 NNE 14 18 1006.2 - 0.0 - - - - - - -
21/02:00pm 29.8 NNE 16 19 1006.3 - 0.0 - - - - - - -
21/01:30pm 29.9 NNE 13 16 1007.0 - 0.0 - - - - - - -
21/01:00pm 30.0 N 13 16 1006.9 - 0.0 - - - - - - -
21/12:30pm 29.9 NNE 13 15 1007.1 - 0.0 - - - - - - -
21/12:00pm 29.2 NNE 10 13 1007.7 - 0.0 - - - - - - -
21/11:30am 29.2 NNE 8 10 1008.2 - 0.0 - - - - - - -
21/11:00am 28.6 NE 7 8 1008.7 - 0.0 - - - - - - -
21/10:30am 29.9 ENE 4 5 1009.0 - 0.0 - - - - - - -
21/10:00am 29.8 S 3 5 1009.4 - 0.0 - - - - - - -
21/09:30am 28.5 S 4 5 1009.4 - 0.0 - - - - - - -
21/09:00am 27.5 SW 3 4 1009.5 - 0.0 - - - - - - -
21/08:30am 27.1 SW 4 6 1009.5 - 0.0 - - - - - - -
21/08:00am 26.6 SW 5 7 1009.4 - 0.0 - - - - - - -
21/07:30am 26.4 SW 6 7 1009.3 - 0.0 - - - - - - -
21/07:00am 27.0 SW 4 5 1008.9 - 0.0 - - - - - - -
21/06:30am 26.8 SW 5 6 1008.7 - 0.0 - - - - - - -
21/06:00am 26.7 SSW 6 7 1008.3 - 0.0 - - - - - - -
21/05:30am 26.8 SSW 6 7 1007.8 - 0.0 - - - - - - -
21/05:00am 26.4 SW 7 8 1007.4 - 0.0 - - - - - - -
21/04:30am 26.4 SW 7 8 1007.0 - 0.0 - - - - - - -
21/04:00am 26.4 SW 8 10 1006.9 - 0.0 - - - - - - -
21/03:30am 26.4 SW 9 11 1007.0 - 0.0 - - - - - - -
21/03:00am 26.0 SW 9 10 1007.0 - 0.0 - - - - - - -
21/02:30am 25.9 SW 12 13 1007.2 - 0.0 - - - - - - -
21/02:00am 26.4 SW 11 13 1007.1 - 0.0 - - - - - - -
21/01:30am 27.7 SW 6 9 1007.2 - 0.0 - - - - - - -
21/01:00am 28.1 WSW 5 6 1007.3 - 0.0 - - - - - - -
21/12:30am 28.0 W 7 8 1007.7 - 0.0 - - - - - - -
21/12:00am 28.5 NW 11 15 1008.0 - 0.0 - - - - - - -
 
Date/Time
EST
Temp
°C
Wind Pressure Rain since
9am
mm
Weather Cloud Vis
km
Sea
Height
m
Swell
Dir  Spd
kts
Gust
kts
hPa Trend Height
m
Period
s
Dir
20/11:30pm 28.7 NNW 12 16 1008.2 - 0.0 - - - - - - -
20/11:00pm 28.8 NNW 11 13 1008.3 - 0.0 - - - - - - -
20/10:30pm 28.8 N 11 13 1008.3 - 0.0 - - - - - - -
20/10:00pm 28.9 NNW 11 15 1008.4 - 0.0 - - - - - - -
20/09:30pm 29.0 NNW 11 13 1008.5 - 0.0 - - - - - - -
20/09:00pm 29.0 N 11 14 1007.9 - 0.0 - - - - - - -
20/08:30pm 29.0 N 10 15 1007.7 - 0.0 - - - - - - -
20/08:00pm 28.9 N 11 14 1007.3 - 0.0 - - - - - - -
20/07:30pm 28.9 N 13 16 1006.9 - 0.0 - - - - - - -
20/07:00pm 29.0 NNE 12 15 1006.5 - 0.0 - - - - - - -
20/06:30pm 29.4 N 12 14 1006.4 - 0.0 - - - - - - -
20/06:00pm 29.3 NNE 12 15 1006.0 - 0.0 - - - - - - -
20/05:30pm 29.6 NNE 12 14 1005.6 - 0.0 - - - - - - -
20/05:00pm 29.2 NE 12 14 1005.4 - 0.0 - - - - - - -
20/04:30pm 29.3 NE 11 15 1005.2 - 0.0 - - - - - - -
20/04:00pm 29.3 ENE 11 14 1005.3 - 0.0 - - - - - - -
20/03:30pm 29.5 ENE 11 14 1005.6 - 0.0 - - - - - - -
20/03:00pm 29.6 ENE 10 14 1005.8 - 0.0 - - - - - - -
20/02:30pm 29.6 ENE 10 13 1006.0 - 0.0 - - - - - - -
20/02:00pm 29.9 E 9 12 1006.3 - 0.0 - - - - - - -
20/01:30pm 29.6 E 10 13 1006.8 - 0.0 - - - - - - -
20/01:00pm 29.7 ENE 9 13 1007.3 - 0.0 - - - - - - -
20/12:30pm 29.7 E 7 10 1007.7 - 0.0 - - - - - - -

Other Formats:

Comma delimited format used in spreadsheet applications
http://www.bom.gov.au/fwo/IDQ60701/IDQ60701.94295.axf

JavaScript Object Notation format (JSON) in row-major order
http://www.bom.gov.au/fwo/IDQ60701/IDQ60701.94295.json